Time;durP1;ratioP1;P1;durP2;ratioP2;P2;SDS_P1;SDS_P2;PMS_P1;PMS_P2;Temp;Humidity;BMP_temperature;BMP_pressure;BME280_temperature;BME280_humidity;BME280_pressure;Samples;Min_cycle;Max_cycle;Signal;HPM_P1;HPM_P2
2020/12/13 00:00:38;;;;;;;15.63;7.45;;;;;;;-0.43;100.00;100896.87;1778654;79;21054;-55
2020/12/13 00:03:07;;;;;;;20.40;7.97;;;;;;;-0.45;100.00;100896.98;1767622;79;21136;-56
2020/12/13 00:05:36;;;;;;;16.65;8.13;;;;;;;-0.46;100.00;100896.59;1770363;79;21049;-61
2020/12/13 00:08:04;;;;;;;14.47;7.35;;;;;;;-0.48;100.00;100900.19;1767925;79;21200;-56
2020/12/13 00:10:32;;;;;;;16.75;8.83;;;;;;;-0.51;100.00;100905.84;1777792;79;21374;-54
2020/12/13 00:13:00;;;;;;;15.72;7.33;;;;;;;-0.54;100.00;100902.66;1757775;80;20978;-60
2020/12/13 00:15:29;;;;;;;13.30;6.92;;;;;;;-0.57;100.00;100899.84;1779273;80;21022;-61
2020/12/13 00:17:57;;;;;;;14.33;6.65;;;;;;;-0.59;100.00;100905.97;1766296;79;21152;-54
2020/12/13 00:20:25;;;;;;;16.77;8.18;;;;;;;-0.64;100.00;100906.72;1771285;79;21128;-55
2020/12/13 00:22:54;;;;;;;19.73;7.72;;;;;;;-0.66;100.00;100908.08;1768771;79;21195;-60
2020/12/13 00:25:22;;;;;;;17.90;7.17;;;;;;;-0.69;100.00;100904.42;1775484;80;21185;-54
2020/12/13 00:27:51;;;;;;;12.40;6.53;;;;;;;-0.72;100.00;100904.61;1769375;79;20979;-61
2020/12/13 00:30:19;;;;;;;14.55;6.80;;;;;;;-0.74;100.00;100909.83;1769693;79;21096;-62
2020/12/13 00:32:47;;;;;;;17.60;7.42;;;;;;;-0.76;100.00;100910.41;1770436;79;21103;-54
2020/12/13 00:35:15;;;;;;;15.75;7.35;;;;;;;-0.79;100.00;100906.75;1770891;79;21210;-55
2020/12/13 00:37:43;;;;;;;13.83;6.78;;;;;;;-0.80;100.00;100910.66;1783969;79;20990;-61
2020/12/13 00:40:12;;;;;;;14.43;6.78;;;;;;;-0.84;100.00;100906.19;1757424;80;21168;-55
2020/12/13 00:42:40;;;;;;;15.23;7.37;;;;;;;-0.85;100.00;100895.59;1781365;79;20983;-58
2020/12/13 00:45:08;;;;;;;21.80;7.47;;;;;;;-0.87;100.00;100900.00;1768486;79;21190;-61
2020/12/13 00:47:37;;;;;;;17.07;7.78;;;;;;;-0.88;100.00;100921.36;1769597;79;22482;-61
2020/12/13 00:50:05;;;;;;;14.47;7.10;;;;;;;-0.90;100.00;100895.06;1784330;79;21180;-55
2020/12/13 00:52:33;;;;;;;17.30;7.05;;;;;;;-0.92;100.00;100917.34;1771366;79;21009;-55
2020/12/13 00:55:01;;;;;;;16.57;6.90;;;;;;;-0.94;100.00;100923.03;1783366;79;20986;-61
2020/12/13 00:57:29;;;;;;;13.45;7.10;;;;;;;-0.97;100.00;100916.81;1770627;79;21025;-61
2020/12/13 00:59:58;;;;;;;14.23;6.55;;;;;;;-1.00;100.00;100910.14;1772856;79;21198;-61
2020/12/13 01:02:26;;;;;;;16.10;7.83;;;;;;;-1.02;100.00;100910.70;1768845;79;21226;-61
2020/12/13 01:04:55;;;;;;;14.87;6.22;;;;;;;-1.03;100.00;100908.22;1769472;79;21120;-61
2020/12/13 01:07:25;;;;;;;13.68;6.22;;;;;;;-1.07;100.00;100905.48;1772234;79;20950;-60
2020/12/13 01:09:54;;;;;;;13.58;6.53;;;;;;;-1.10;100.00;100896.27;1768450;79;21048;-56
2020/12/13 01:12:22;;;;;;;12.20;6.80;;;;;;;-1.13;100.00;100899.02;1770343;79;21213;-55
2020/12/13 01:14:50;;;;;;;12.00;6.12;;;;;;;-1.15;100.00;100905.13;1769508;79;21103;-61
2020/12/13 01:17:19;;;;;;;15.53;6.20;;;;;;;-1.18;100.00;100911.23;1770090;79;21049;-56
2020/12/13 01:19:47;;;;;;;11.80;6.33;;;;;;;-1.19;100.00;100899.37;1761309;79;21115;-55
2020/12/13 01:22:16;;;;;;;12.95;6.35;;;;;;;-1.23;100.00;100891.05;1765504;79;20942;-60
2020/12/13 01:24:44;;;;;;;14.55;6.10;;;;;;;-1.25;100.00;100885.22;1781717;79;22090;-56
2020/12/13 01:27:12;;;;;;;13.60;6.03;;;;;;;-1.28;100.00;100884.13;1771660;79;21204;-60
2020/12/13 01:29:40;;;;;;;14.45;6.08;;;;;;;-1.29;100.00;100888.88;1717639;80;21145;-60
2020/12/13 01:32:08;;;;;;;12.15;6.08;;;;;;;-1.33;100.00;100882.27;1762982;80;21109;-56
2020/12/13 01:34:37;;;;;;;10.80;5.20;;;;;;;-1.35;100.00;100901.20;1787107;79;21195;-56
2020/12/13 01:37:05;;;;;;;13.68;5.87;;;;;;;-1.38;100.00;100884.75;1781318;79;21050;-55
2020/12/13 01:39:35;;;;;;;13.85;5.85;;;;;;;-1.41;100.00;100897.25;1784766;79;20986;-60
2020/12/13 01:42:03;;;;;;;13.68;5.85;;;;;;;-1.43;100.00;100889.33;1784163;79;21161;-60
2020/12/13 01:44:35;;;;;;;10.93;5.10;;;;;;;-1.46;100.00;100890.31;1785250;79;21113;-60
2020/12/13 01:47:05;;;;;;;10.70;5.78;;;;;;;-1.48;100.00;100884.45;1777827;79;21117;-59
2020/12/13 01:55:08;;;;;;;11.20;5.35;;;;;;;-1.58;100.00;100888.03;1777205;80;21156;-56
2020/12/13 01:57:38;;;;;;;12.82;5.45;;;;;;;-1.60;100.00;100887.73;1782097;80;21438;-56
2020/12/13 02:00:12;;;;;;;13.03;5.33;;;;;;;-1.63;100.00;100907.93;1771941;80;21005;-60
2020/12/13 02:02:45;;;;;;;10.65;4.92;;;;;;;-1.66;100.00;100906.83;1778256;80;21009;-62
2020/12/13 02:05:14;;;;;;;13.20;4.80;;;;;;;-1.69;100.00;100885.73;1780750;80;20950;-58
2020/12/13 02:07:42;;;;;;;11.15;4.85;;;;;;;-1.73;100.00;100890.19;1766889;80;20974;-62
2020/12/13 02:10:11;;;;;;;12.20;5.15;;;;;;;-1.76;100.00;100906.97;1771020;80;21294;-62
2020/12/13 02:12:39;;;;;;;9.18;5.25;;;;;;;-1.80;100.00;100904.23;1776096;79;21057;-58
2020/12/13 02:15:07;;;;;;;17.85;5.22;;;;;;;-1.83;100.00;100895.00;1781810;80;21013;-61
2020/12/13 02:17:36;;;;;;;9.45;4.87;;;;;;;-1.85;100.00;100915.18;1765033;80;21033;-61
2020/12/13 02:20:14;;;;;;;10.58;4.95;;;;;;;-1.88;100.00;100907.68;1781904;79;21003;-57
2020/12/13 02:22:48;;;;;;;13.90;5.33;;;;;;;-1.92;100.00;100894.25;1777963;80;21261;-56
2020/12/13 02:25:21;;;;;;;12.15;5.58;;;;;;;-1.96;100.00;100882.56;1745248;80;20997;-56
2020/12/13 02:27:51;;;;;;;12.00;5.25;;;;;;;-1.99;100.00;100907.83;1773010;80;21117;-59
2020/12/13 02:30:19;;;;;;;9.63;4.72;;;;;;;-2.03;100.00;100898.69;1781435;80;21251;-59
2020/12/13 02:32:47;;;;;;;12.28;5.08;;;;;;;-2.06;100.00;100902.69;1772670;80;21226;-60
2020/12/13 02:35:15;;;;;;;10.50;4.42;;;;;;;-2.08;100.00;100907.08;1774991;80;21283;-57
2020/12/13 02:37:44;;;;;;;9.03;4.85;;;;;;;-2.10;100.00;100900.39;1774330;80;20965;-59
2020/12/13 02:40:12;;;;;;;10.55;4.67;;;;;;;-2.12;100.00;100897.09;1772989;80;20992;-57
2020/12/13 02:42:40;;;;;;;9.70;4.85;;;;;;;-2.14;100.00;100886.97;1782126;79;21047;-57
2020/12/13 02:45:08;;;;;;;10.00;4.58;;;;;;;-2.16;100.00;100889.23;1769155;80;21210;-59
2020/12/13 02:47:37;;;;;;;9.35;4.65;;;;;;;-2.17;100.00;100883.77;1778338;80;21249;-57
2020/12/13 02:50:05;;;;;;;9.73;5.10;;;;;;;-2.19;100.00;100884.32;1755030;80;21001;-59
2020/12/13 02:52:33;;;;;;;12.60;5.12;;;;;;;-2.21;100.00;100891.59;1775500;80;21012;-58
2020/12/13 02:55:01;;;;;;;11.18;4.35;;;;;;;-2.23;100.00;100893.42;1771721;79;21146;-58
2020/12/13 02:57:30;;;;;;;13.05;6.25;;;;;;;-2.24;100.00;100891.75;1782059;79;21509;-57
2020/12/13 02:59:57;;;;;;;16.97;5.70;;;;;;;-2.25;100.00;100890.58;1780889;80;22108;-60
2020/12/13 03:02:26;;;;;;;9.80;5.22;;;;;;;-2.26;100.00;100880.00;1776085;80;21017;-60
2020/12/13 03:04:55;;;;;;;13.08;4.25;;;;;;;-2.28;100.00;100876.23;1775982;80;21181;-58
2020/12/13 03:07:23;;;;;;;14.50;6.00;;;;;;;-2.29;100.00;100886.09;1777912;79;21120;-57
2020/12/13 03:09:51;;;;;;;12.53;5.95;;;;;;;-2.29;100.00;100880.98;1774760;80;21035;-58
2020/12/13 03:12:19;;;;;;;16.20;6.28;;;;;;;-2.30;100.00;100887.02;1768736;79;21198;-56
2020/12/13 03:14:47;;;;;;;13.83;7.03;;;;;;;-2.30;100.00;100881.91;1777288;80;21042;-60
2020/12/13 03:17:15;;;;;;;12.88;6.17;;;;;;;-2.31;100.00;100868.78;1779882;80;21156;-59
2020/12/13 03:19:44;;;;;;;9.80;5.95;;;;;;;-2.31;100.00;100878.14;1766802;80;21093;-59
2020/12/13 03:22:12;;;;;;;13.90;6.30;;;;;;;-2.32;100.00;100864.55;1781478;80;21006;-59
2020/12/13 03:24:40;;;;;;;10.32;4.70;;;;;;;-2.33;100.00;100884.63;1774954;80;21201;-59
2020/12/13 03:27:08;;;;;;;11.78;5.25;;;;;;;-2.31;100.00;100880.69;1779467;80;21035;-60
2020/12/13 03:29:37;;;;;;;12.93;5.60;;;;;;;-2.34;100.00;100880.43;1778096;80;20973;-57
2020/12/13 03:32:05;;;;;;;12.07;6.37;;;;;;;-2.33;100.00;100878.69;1782559;80;20975;-58
2020/12/13 03:34:33;;;;;;;13.75;6.47;;;;;;;-2.33;100.00;100873.12;1777358;80;21163;-57
2020/12/13 03:37:02;;;;;;;11.65;5.50;;;;;;;-2.34;100.00;100866.39;1772492;80;21200;-60
2020/12/13 03:39:30;;;;;;;16.45;7.20;;;;;;;-2.35;100.00;100869.86;1779864;80;21189;-56
2020/12/13 03:41:58;;;;;;;15.45;6.22;;;;;;;-2.35;100.00;100874.11;1763912;80;21164;-59
2020/12/13 03:44:26;;;;;;;12.15;6.03;;;;;;;-2.34;100.00;100876.59;1775514;80;21021;-58
2020/12/13 03:46:54;;;;;;;14.10;6.17;;;;;;;-2.36;100.00;100900.10;1782116;80;21142;-61
2020/12/13 03:49:22;;;;;;;15.65;6.17;;;;;;;-2.37;100.00;100886.97;1782790;80;21201;-56
2020/12/13 03:51:51;;;;;;;13.95;6.85;;;;;;;-2.37;100.00;100888.25;1760475;79;21067;-56
2020/12/13 03:54:19;;;;;;;16.10;6.85;;;;;;;-2.37;100.00;100892.08;1717366;82;21041;-58
2020/12/13 03:56:47;;;;;;;15.85;6.40;;;;;;;-2.36;100.00;100883.51;1717376;82;20970;-58
2020/12/13 03:59:15;;;;;;;13.62;5.85;;;;;;;-2.37;100.00;100901.02;1768616;79;21502;-58
2020/12/13 04:01:44;;;;;;;11.70;6.28;;;;;;;-2.37;100.00;100893.81;1768163;80;21767;-56
2020/12/13 04:04:13;;;;;;;12.95;6.37;;;;;;;-2.37;100.00;100909.95;1773805;80;20980;-56
2020/12/13 04:06:41;;;;;;;13.65;5.80;;;;;;;-2.38;100.00;100903.20;1767890;80;21210;-56
2020/12/13 04:09:10;;;;;;;19.77;9.33;;;;;;;-2.38;100.00;100907.04;1773852;80;21175;-58
2020/12/13 04:11:38;;;;;;;12.68;5.65;;;;;;;-2.37;100.00;100912.97;1770057;80;21052;-59
2020/12/13 04:14:06;;;;;;;13.38;6.50;;;;;;;-2.37;100.00;100916.34;1773481;80;21150;-57
2020/12/13 04:16:35;;;;;;;14.50;6.55;;;;;;;-2.37;100.00;100907.41;1774537;80;21168;-58
2020/12/13 04:19:03;;;;;;;13.93;6.65;;;;;;;-2.36;100.00;100912.87;1769203;80;21051;-56
2020/12/13 04:21:31;;;;;;;19.32;7.47;;;;;;;-2.34;100.00;100903.41;1769319;80;21001;-57
2020/12/13 04:23:59;;;;;;;15.68;7.17;;;;;;;-2.34;100.00;100898.30;1772891;80;21152;-57
2020/12/13 04:26:27;;;;;;;15.43;7.58;;;;;;;-2.33;100.00;100912.70;1774675;80;21218;-59
2020/12/13 04:28:55;;;;;;;15.10;6.72;;;;;;;-2.33;100.00;100913.16;1768044;80;21154;-57
2020/12/13 04:31:24;;;;;;;18.05;6.78;;;;;;;-2.35;100.00;100896.66;1775395;80;21081;-59
2020/12/13 04:33:52;;;;;;;15.08;7.00;;;;;;;-2.35;100.00;100909.86;1770993;80;20992;-56
2020/12/13 04:36:20;;;;;;;14.63;7.05;;;;;;;-2.35;100.00;100912.41;1763097;80;20950;-59
2020/12/13 04:38:49;;;;;;;11.97;6.30;;;;;;;-2.36;100.00;100910.31;1766284;80;21264;-58
2020/12/13 04:41:17;;;;;;;13.28;6.92;;;;;;;-2.36;100.00;100915.88;1775923;80;21164;-57
2020/12/13 04:43:46;;;;;;;11.70;6.25;;;;;;;-2.36;100.00;100914.60;1765199;80;21552;-56
2020/12/13 04:46:14;;;;;;;13.18;6.78;;;;;;;-2.38;100.00;100915.98;1781708;80;21152;-59
2020/12/13 04:48:42;;;;;;;13.20;7.37;;;;;;;-2.39;100.00;100914.77;1766728;80;20910;-57
2020/12/13 04:51:10;;;;;;;14.10;6.25;;;;;;;-2.41;100.00;100913.58;1769796;80;21156;-59
2020/12/13 04:53:39;;;;;;;13.35;6.35;;;;;;;-2.42;100.00;100908.12;1775384;80;21041;-59
2020/12/13 04:56:10;;;;;;;20.10;8.13;;;;;;;-2.41;100.00;100907.66;1777854;80;21218;-58
2020/12/13 04:58:38;;;;;;;15.53;6.45;;;;;;;-2.42;100.00;100912.38;1773429;80;21063;-59
2020/12/13 05:01:06;;;;;;;13.50;7.00;;;;;;;-2.43;100.00;100909.45;1775481;80;21259;-58
2020/12/13 05:03:35;;;;;;;12.58;6.20;;;;;;;-2.44;100.00;100906.09;1771629;80;21200;-58
2020/12/13 05:06:03;;;;;;;14.75;7.00;;;;;;;-2.43;100.00;100908.18;1776540;80;21126;-56
2020/12/13 05:08:31;;;;;;;18.60;7.35;;;;;;;-2.45;100.00;100903.99;1775201;80;21117;-59
2020/12/13 05:11:00;;;;;;;13.68;6.83;;;;;;;-2.47;100.00;100909.62;1759779;79;21044;-59
2020/12/13 05:13:28;;;;;;;15.85;7.05;;;;;;;-2.49;100.00;100907.63;1767875;80;21196;-58
2020/12/13 05:15:57;;;;;;;15.68;7.30;;;;;;;-2.51;100.00;100919.63;1770904;80;21193;-56
2020/12/13 05:18:25;;;;;;;16.65;7.55;;;;;;;-2.54;100.00;100915.98;1777129;80;21170;-57
2020/12/13 05:20:54;;;;;;;18.57;7.10;;;;;;;-2.56;100.00;100924.17;1757559;80;21135;-56
2020/12/13 05:23:22;;;;;;;15.30;7.10;;;;;;;-2.58;100.00;100931.53;1778661;80;21046;-56
2020/12/13 05:25:50;;;;;;;20.95;8.88;;;;;;;-2.60;100.00;100933.35;1756761;80;21132;-57
2020/12/13 05:28:18;;;;;;;15.53;7.55;;;;;;;-2.62;100.00;100928.31;1698234;80;21325;-56
2020/12/13 05:30:48;;;;;;;15.93;7.08;;;;;;;-2.65;100.00;100929.78;1720044;80;21167;-56
2020/12/13 05:33:29;;;;;;;12.60;6.87;;;;;;;-2.65;100.00;100927.65;1746536;80;21226;-56
2020/12/13 05:36:01;;;;;;;17.52;7.00;;;;;;;-2.66;100.00;100924.28;1775971;80;20952;-59
2020/12/13 05:38:39;;;;;;;15.90;6.40;;;;;;;-2.68;100.00;100918.91;1771673;80;21596;-55
2020/12/13 05:41:10;;;;;;;15.80;7.40;;;;;;;-2.70;100.00;100921.06;1776139;80;21369;-56
2020/12/13 05:49:01;;;;;;;14.20;7.75;;;;;;;-2.71;100.00;100920.70;1769582;78;21006;-59
2020/12/13 05:56:32;;;;;;;13.17;7.33;;;;;;;-2.63;100.00;100925.86;1834932;76;22732;-58
2020/12/13 05:59:00;;;;;;;14.30;6.65;;;;;;;-2.67;100.00;100926.92;1777595;79;20956;-56
2020/12/13 06:01:30;;;;;;;13.05;6.95;;;;;;;-2.68;100.00;100927.38;1781250;80;21470;-56
2020/12/13 06:03:59;;;;;;;15.40;7.00;;;;;;;-2.68;100.00;100931.67;1780512;79;20997;-56
2020/12/13 06:06:28;;;;;;;16.10;7.85;;;;;;;-2.69;100.00;100934.64;1775281;80;21041;-58
2020/12/13 06:09:10;;;;;;;16.45;8.48;;;;;;;-2.72;100.00;100933.09;1778150;79;21027;-56
2020/12/13 06:11:47;;;;;;;18.87;7.55;;;;;;;-2.73;100.00;100931.45;1783144;79;21005;-56
2020/12/13 06:14:20;;;;;;;16.73;7.80;;;;;;;-2.74;100.00;100934.89;1778421;78;21201;-57
2020/12/13 06:16:49;;;;;;;18.40;6.53;;;;;;;-2.77;100.00;100940.15;1779313;80;21001;-58
2020/12/13 06:19:22;;;;;;;16.87;7.85;;;;;;;-2.78;100.00;100943.62;1782120;80;21591;-57
2020/12/13 06:21:50;;;;;;;15.30;7.55;;;;;;;-2.78;100.00;100936.42;1754695;80;20966;-56
2020/12/13 06:24:18;;;;;;;17.87;7.67;;;;;;;-2.79;100.00;100927.94;1779015;80;21132;-55
2020/12/13 06:26:46;;;;;;;16.20;7.67;;;;;;;-2.78;100.00;100933.41;1781610;80;21420;-56
2020/12/13 06:29:15;;;;;;;15.98;8.30;;;;;;;-2.79;100.00;100929.67;1745047;80;21179;-56
2020/12/13 06:31:44;;;;;;;15.65;7.85;;;;;;;-2.81;100.00;100929.73;1781774;79;21075;-58
2020/12/13 06:34:12;;;;;;;16.42;8.70;;;;;;;-2.81;100.00;100923.36;1711816;80;21065;-57
2020/12/13 06:36:40;;;;;;;17.32;7.85;;;;;;;-2.82;100.00;100937.03;1778299;80;20934;-57
2020/12/13 06:41:52;;;;;;;13.30;6.53;;;;;;;-2.83;100.00;100944.32;1822011;76;22772;-57
2020/12/13 06:44:21;;;;;;;15.35;7.33;;;;;;;-2.89;100.00;100934.88;1782627;79;20883;-57
2020/12/13 06:46:49;;;;;;;20.25;7.72;;;;;;;-2.91;100.00;100924.77;1689320;82;21286;-57
2020/12/13 06:49:18;;;;;;;18.12;8.38;;;;;;;-2.91;100.00;100938.80;1728610;82;21002;-56
2020/12/13 06:51:47;;;;;;;19.27;8.35;;;;;;;-2.92;100.00;100953.70;1724735;82;20989;-56
2020/12/13 06:54:18;;;;;;;17.30;7.70;;;;;;;-2.91;100.00;100952.01;1782369;79;21054;-56
2020/12/13 06:56:47;;;;;;;20.80;8.90;;;;;;;-2.91;100.00;100922.67;1782941;80;21571;-56
2020/12/13 06:59:17;;;;;;;21.20;8.35;;;;;;;-2.93;100.00;100941.87;1778697;79;21373;-56
2020/12/13 07:01:46;;;;;;;22.45;8.50;;;;;;;-2.93;100.00;100945.69;1713064;80;21036;-57
2020/12/13 07:04:25;;;;;;;19.65;8.80;;;;;;;-2.92;100.00;100942.69;1770215;80;21059;-60
2020/12/13 07:09:32;;;;;;;15.97;7.23;;;;;;;-2.88;100.00;100928.41;1879886;75;22641;-57
2020/12/13 07:12:01;;;;;;;16.23;8.43;;;;;;;-2.89;100.00;100952.73;1785135;80;20954;-58
2020/12/13 07:14:31;;;;;;;17.85;7.35;;;;;;;-2.91;100.00;100946.91;1788588;78;21190;-57
2020/12/13 07:19:40;;;;;;;18.00;7.37;;;;;;;-2.85;100.00;100956.77;1854875;76;22640;-58
2020/12/13 07:22:13;;;;;;;18.95;8.68;;;;;;;-2.91;100.00;100963.03;1820646;77;21019;-61
2020/12/13 07:24:42;;;;;;;18.17;8.43;;;;;;;-2.90;100.00;100956.20;1825325;77;21361;-57
2020/12/13 07:27:11;;;;;;;18.80;8.58;;;;;;;-2.90;100.00;100958.30;1833196;77;20952;-57
2020/12/13 07:29:39;;;;;;;18.73;8.30;;;;;;;-2.88;100.00;100967.12;1824606;77;20960;-57
2020/12/13 07:32:07;;;;;;;18.80;9.33;;;;;;;-2.88;100.00;100959.02;1824388;77;20995;-57
2020/12/13 07:34:37;;;;;;;27.52;11.38;;;;;;;-2.90;100.00;100956.20;1824809;77;20935;-58
2020/12/13 07:37:05;;;;;;;16.17;8.18;;;;;;;-2.91;100.00;100945.17;1825186;77;21195;-58
2020/12/13 07:39:33;;;;;;;19.37;9.93;;;;;;;-2.88;100.00;100956.47;1823430;77;21033;-60
2020/12/13 07:42:05;;;;;;;18.48;8.60;;;;;;;-2.86;100.00;100959.78;1823267;77;20986;-60
2020/12/13 07:44:33;;;;;;;19.05;8.80;;;;;;;-2.87;100.00;100947.94;1755970;80;21043;-59
2020/12/13 07:47:01;;;;;;;44.08;22.20;;;;;;;-2.89;100.00;100947.17;1783512;80;21002;-58
2020/12/13 07:49:29;;;;;;;34.08;16.25;;;;;;;-2.86;100.00;100927.07;1777268;80;21208;-56
2020/12/13 07:51:57;;;;;;;22.07;10.90;;;;;;;-2.86;100.00;100941.92;1756205;80;20988;-57
2020/12/13 07:57:16;;;;;;;30.10;16.30;;;;;;;-2.81;100.00;100931.47;1853226;75;22829;-59
2020/12/13 07:59:43;;;;;;;23.00;10.08;;;;;;;-2.85;100.00;100934.63;1850525;77;21004;-58
2020/12/13 08:02:13;;;;;;;20.35;9.63;;;;;;;-2.85;100.00;100943.56;1854292;77;21573;-58
2020/12/13 08:04:43;;;;;;;17.70;8.58;;;;;;;-2.86;100.00;100939.38;1852229;77;21032;-59
2020/12/13 08:07:12;;;;;;;20.70;9.63;;;;;;;-2.86;100.00;100940.64;1854255;77;21327;-59
2020/12/13 08:09:42;;;;;;;17.05;8.50;;;;;;;-2.86;100.00;100926.62;1848055;77;27020;-58
2020/12/13 08:12:12;;;;;;;16.97;8.80;;;;;;;-2.83;100.00;100926.45;1852421;77;20926;-59
2020/12/13 08:14:40;;;;;;;17.90;8.95;;;;;;;-2.81;100.00;100913.61;1853142;77;21476;-58
2020/12/13 08:17:08;;;;;;;18.20;9.58;;;;;;;-2.79;100.00;100917.73;1857503;77;20878;-54
2020/12/13 08:19:52;;;;;;;24.15;9.80;;;;;;;-2.79;100.00;100910.08;1853170;77;20930;-56
2020/12/13 08:22:28;;;;;;;19.62;9.88;;;;;;;-2.78;100.00;100914.27;1855332;77;20910;-53
2020/12/13 08:25:01;;;;;;;18.62;9.38;;;;;;;-2.77;100.00;100922.29;1848058;77;20993;-52
2020/12/13 08:27:30;;;;;;;20.88;9.83;;;;;;;-2.77;100.00;100925.30;1855150;77;21437;-57
2020/12/13 08:29:58;;;;;;;18.20;7.90;;;;;;;-2.77;100.00;100922.29;1852215;77;20966;-55
2020/12/13 08:32:36;;;;;;;21.80;9.15;;;;;;;-2.78;100.00;100909.62;1856815;77;21148;-56
2020/12/13 08:35:12;;;;;;;20.12;9.93;;;;;;;-2.79;100.00;100904.16;1849548;77;21151;-55
2020/12/13 08:37:41;;;;;;;18.98;9.95;;;;;;;-2.82;100.00;100898.76;1853586;77;20917;-56
2020/12/13 08:40:11;;;;;;;18.32;9.35;;;;;;;-2.79;100.00;100900.34;1847375;77;21476;-58
2020/12/13 08:42:40;;;;;;;18.85;8.73;;;;;;;-2.78;100.00;100892.59;1825537;77;20938;-56
2020/12/13 08:45:09;;;;;;;16.70;8.40;;;;;;;-2.77;100.00;100896.77;1852340;77;21393;-60
2020/12/13 08:47:37;;;;;;;19.65;9.15;;;;;;;-2.76;100.00;100893.80;1821479;77;21148;-55
2020/12/13 08:50:07;;;;;;;23.92;10.65;;;;;;;-2.77;100.00;100890.40;1850934;77;21595;-56
2020/12/13 08:52:36;;;;;;;22.67;10.38;;;;;;;-2.79;100.00;100885.84;1819261;77;21291;-55
2020/12/13 08:55:06;;;;;;;17.75;8.83;;;;;;;-2.79;100.00;100888.40;1849793;77;21175;-56
2020/12/13 08:57:45;;;;;;;19.15;9.15;;;;;;;-2.79;100.00;100878.19;1853980;77;21139;-56
2020/12/13 09:00:10;;;;;;;21.23;9.60;;;;;;;-2.79;100.00;100896.05;1852046;77;21182;-59
2020/12/13 09:02:40;;;;;;;17.90;9.18;;;;;;;-2.79;100.00;100890.95;1855685;77;21009;-58
2020/12/13 09:05:08;;;;;;;22.17;9.45;;;;;;;-2.80;100.00;100881.66;1848495;77;22088;-58
2020/12/13 09:07:39;;;;;;;17.05;7.45;;;;;;;-2.78;100.00;100881.11;1851251;77;21040;-58
2020/12/13 09:10:11;;;;;;;17.55;8.83;;;;;;;-2.76;100.00;100879.31;1796990;77;21134;-57
2020/12/13 09:12:40;;;;;;;15.65;8.15;;;;;;;-2.71;100.00;100881.15;1850565;77;21140;-56
2020/12/13 09:15:16;;;;;;;16.60;8.55;;;;;;;-2.65;100.00;100871.50;1855894;77;20938;-56
2020/12/13 09:17:54;;;;;;;17.32;9.00;;;;;;;-2.61;100.00;100866.64;1845764;77;21371;-57
2020/12/13 09:20:28;;;;;;;20.17;8.35;;;;;;;-2.59;100.00;100863.53;1854722;77;21626;-55
2020/12/13 09:23:06;;;;;;;15.45;8.03;;;;;;;-2.59;100.00;100870.73;1848196;77;21601;-56
2020/12/13 09:25:42;;;;;;;16.27;8.10;;;;;;;-2.57;100.00;100845.95;1851207;77;21096;-55
2020/12/13 09:28:11;;;;;;;19.30;8.65;;;;;;;-2.52;100.00;100859.73;1852047;77;20946;-55
2020/12/13 09:30:39;;;;;;;20.10;8.23;;;;;;;-2.50;100.00;100868.12;1855081;77;21190;-56
2020/12/13 09:33:07;;;;;;;17.60;8.68;;;;;;;-2.49;100.00;100853.20;1851333;77;21159;-57
2020/12/13 09:35:35;;;;;;;16.48;8.20;;;;;;;-2.46;100.00;100856.86;1856826;77;21037;-56
2020/12/13 09:38:06;;;;;;;16.42;8.73;;;;;;;-2.46;100.00;100849.20;1849780;77;20986;-56
2020/12/13 09:40:34;;;;;;;20.80;8.40;;;;;;;-2.48;100.00;100866.31;1854483;77;21281;-57
2020/12/13 09:43:03;;;;;;;17.75;9.00;;;;;;;-2.53;100.00;100841.05;1852610;77;21250;-56
2020/12/13 09:45:33;;;;;;;14.18;7.05;;;;;;;-2.52;100.00;100846.52;1855324;77;21156;-57
2020/12/13 09:48:01;;;;;;;17.80;8.60;;;;;;;-2.53;100.00;100841.05;1850414;77;21160;-57
2020/12/13 09:50:29;;;;;;;16.25;8.25;;;;;;;-2.55;100.00;100845.86;1854229;77;21001;-56
2020/12/13 09:52:57;;;;;;;19.00;8.50;;;;;;;-2.58;100.00;100838.37;1853608;77;21473;-56
2020/12/13 09:55:27;;;;;;;15.90;7.58;;;;;;;-2.60;100.00;100833.81;1852785;77;21372;-57
2020/12/13 09:57:55;;;;;;;20.05;8.65;;;;;;;-2.64;100.00;100832.34;1849649;77;21235;-57
2020/12/13 10:00:23;;;;;;;17.92;8.80;;;;;;;-2.67;100.00;100832.05;1854870;77;21029;-58
2020/12/13 10:02:52;;;;;;;17.62;8.60;;;;;;;-2.69;100.00;100823.64;1849276;77;20916;-56
2020/12/13 10:05:30;;;;;;;17.17;9.08;;;;;;;-2.67;100.00;100815.92;1849650;77;21150;-57
2020/12/13 10:10:43;;;;;;;16.87;8.27;;;;;;;-2.61;100.00;100820.70;1869965;75;22806;-55
2020/12/13 10:13:12;;;;;;;16.93;7.90;;;;;;;-2.69;100.00;100830.02;1833038;77;20895;-56
2020/12/13 10:15:40;;;;;;;19.32;7.67;;;;;;;-2.70;100.00;100813.89;1855311;77;21196;-58
2020/12/13 10:18:08;;;;;;;16.87;8.50;;;;;;;-2.70;100.00;100801.59;1854335;77;21020;-60
2020/12/13 10:20:41;;;;;;;18.57;7.55;;;;;;;-2.70;100.00;100803.69;1855817;77;20950;-57
2020/12/13 10:23:09;;;;;;;20.43;8.70;;;;;;;-2.69;100.00;100796.84;1854452;77;20989;-59
2020/12/13 10:25:37;;;;;;;20.65;9.80;;;;;;;-2.71;100.00;100786.73;1855460;77;20978;-55
2020/12/13 10:28:05;;;;;;;54.63;25.70;;;;;;;-2.70;100.00;100784.55;1818279;77;21193;-59
2020/12/13 10:30:34;;;;;;;62.75;28.30;;;;;;;-2.69;100.00;100784.09;1856998;77;20958;-58
2020/12/13 10:33:02;;;;;;;22.60;12.50;;;;;;;-2.71;100.00;100790.56;1850057;77;20967;-58
2020/12/13 10:35:30;;;;;;;16.48;7.08;;;;;;;-2.72;100.00;100791.48;1854220;77;21013;-58
2020/12/13 10:37:58;;;;;;;16.52;8.63;;;;;;;-2.75;100.00;100790.37;1853433;76;21132;-58
2020/12/13 10:40:26;;;;;;;19.42;8.05;;;;;;;-2.77;100.00;100797.27;1851864;77;21194;-58
2020/12/13 10:42:54;;;;;;;17.85;7.95;;;;;;;-2.77;100.00;100779.86;1859018;77;20973;-57
2020/12/13 10:45:22;;;;;;;19.73;8.70;;;;;;;-2.77;100.00;100788.80;1848657;77;21016;-57
2020/12/13 10:47:50;;;;;;;16.95;7.95;;;;;;;-2.76;100.00;100791.73;1860343;77;20993;-58
2020/12/13 10:50:19;;;;;;;20.35;9.10;;;;;;;-2.75;100.00;100785.72;1852827;77;21602;-57
2020/12/13 10:52:47;;;;;;;18.73;8.88;;;;;;;-2.75;100.00;100772.51;1853365;77;21186;-58
2020/12/13 10:55:16;;;;;;;17.67;8.68;;;;;;;-2.74;100.00;100784.34;1856860;77;21041;-58
2020/12/13 10:57:44;;;;;;;17.82;8.45;;;;;;;-2.73;100.00;100790.27;1850377;77;20930;-58
2020/12/13 11:00:12;;;;;;;18.07;8.53;;;;;;;-2.72;100.00;100781.27;1843041;77;21017;-58
2020/12/13 11:02:41;;;;;;;21.30;8.38;;;;;;;-2.70;100.00;100783.27;1859200;77;21120;-57
2020/12/13 11:05:09;;;;;;;16.97;8.48;;;;;;;-2.68;100.00;100786.21;1846820;77;21147;-58
2020/12/13 11:07:37;;;;;;;16.17;8.05;;;;;;;-2.65;100.00;100784.74;1859205;77;20965;-57
2020/12/13 11:10:06;;;;;;;17.87;7.92;;;;;;;-2.63;100.00;100784.22;1819197;77;21021;-57
2020/12/13 11:12:34;;;;;;;17.67;8.98;;;;;;;-2.62;100.00;100775.19;1808368;78;21174;-59
2020/12/13 11:15:03;;;;;;;19.90;9.43;;;;;;;-2.61;100.00;100784.97;1800654;78;21033;-58
2020/12/13 11:17:31;;;;;;;13.55;7.78;;;;;;;-2.57;100.00;100776.23;1807767;78;21372;-55
2020/12/13 11:20:00;;;;;;;18.60;8.53;;;;;;;-2.55;100.00;100779.50;1764984;80;21024;-57
2020/12/13 11:22:28;;;;;;;15.08;7.45;;;;;;;-2.54;100.00;100776.03;1815760;78;21031;-56
2020/12/13 11:24:56;;;;;;;14.90;7.22;;;;;;;-2.57;100.00;100780.06;1789260;79;21163;-57
2020/12/13 11:27:24;;;;;;;18.12;8.45;;;;;;;-2.60;100.00;100780.22;1815331;78;21140;-57
2020/12/13 11:29:53;;;;;;;15.43;8.90;;;;;;;-2.60;100.00;100778.95;1816747;78;21199;-57
2020/12/13 11:32:26;;;;;;;16.67;8.30;;;;;;;-2.58;100.00;100786.05;1802242;78;21503;-57
2020/12/13 11:34:55;;;;;;;16.50;8.13;;;;;;;-2.61;100.00;100782.42;1813579;78;21093;-57
2020/12/13 11:37:23;;;;;;;16.65;7.80;;;;;;;-2.64;100.00;100788.50;1782608;80;21076;-57
2020/12/13 11:39:51;;;;;;;18.37;9.88;;;;;;;-2.66;100.00;100789.48;1811403;78;21148;-58
2020/12/13 11:42:20;;;;;;;17.23;8.75;;;;;;;-2.65;100.00;100788.14;1783347;78;21241;-58
2020/12/13 11:44:48;;;;;;;15.10;7.60;;;;;;;-2.67;100.00;100798.05;1816403;78;20991;-58
2020/12/13 11:47:16;;;;;;;17.37;7.83;;;;;;;-2.67;100.00;100808.27;1801051;78;21058;-59